Time;durP1;ratioP1;P1;durP2;ratioP2;P2;SDS_P1;SDS_P2;PMS_P1;PMS_P2;Temp;Humidity;BMP_temperature;BMP_pressure;BME280_temperature;BME280_humidity;BME280_pressure;Samples;Min_cycle;Max_cycle;Signal;HPM_P1;HPM_P2
2022/10/14 00:00:31;;;;;;;24.85;15.10;;;;;;;;;;5092778;28;20043;-42
2022/10/14 00:02:56;;;;;;;27.38;15.10;;;;;;;;;;5092695;28;20020;-44
2022/10/14 00:05:21;;;;;;;22.58;13.60;;;;;;;;;;5092423;28;20031;-44
2022/10/14 00:07:46;;;;;;;32.28;14.75;;;;;;;;;;5092413;28;20016;-43
2022/10/14 00:10:12;;;;;;;23.30;13.30;;;;;;;;;;5093238;28;20052;-44
2022/10/14 00:12:37;;;;;;;23.73;13.77;;;;;;;;;;5092653;28;20102;-43
2022/10/14 00:15:03;;;;;;;31.13;15.02;;;;;;;;;;5092614;28;20021;-44
2022/10/14 00:17:28;;;;;;;23.52;14.25;;;;;;;;;;5092596;28;20067;-44
2022/10/14 00:19:53;;;;;;;25.98;14.43;;;;;;;;;;5092353;28;20039;-44
2022/10/14 00:22:19;;;;;;;26.88;15.05;;;;;;;;;;5092409;28;20020;-42
2022/10/14 00:24:44;;;;;;;26.88;15.93;;;;;;;;;;5093531;28;20020;-44
2022/10/14 00:27:09;;;;;;;25.75;14.90;;;;;;;;;;5096110;28;20016;-46
2022/10/14 00:29:34;;;;;;;25.10;14.60;;;;;;;;;;5095392;28;20016;-42
2022/10/14 00:32:00;;;;;;;29.48;16.10;;;;;;;;;;5096286;28;20020;-44
2022/10/14 00:34:25;;;;;;;30.88;15.50;;;;;;;;;;5096122;28;20055;-44
2022/10/14 00:36:50;;;;;;;33.83;16.23;;;;;;;;;;5096142;28;20032;-42
2022/10/14 00:39:16;;;;;;;29.13;14.40;;;;;;;;;;5095717;28;20020;-42
2022/10/14 00:41:41;;;;;;;30.02;15.00;;;;;;;;;;5095841;28;20024;-41
2022/10/14 00:44:26;;;;;;;26.90;14.73;;;;;;;;;;5095879;28;20020;-44
2022/10/14 00:46:52;;;;;;;33.83;15.90;;;;;;;;;;5095732;28;20169;-44
2022/10/14 00:49:19;;;;;;;30.55;15.85;;;;;;;;;;5096385;28;20078;-44
2022/10/14 00:51:50;;;;;;;27.90;15.98;;;;;;;;;;5095744;28;20031;-43
2022/10/14 00:54:16;;;;;;;42.35;14.88;;;;;;;;;;5095579;28;20031;-43
2022/10/14 00:56:43;;;;;;;33.67;16.02;;;;;;;;;;5095902;28;20024;-43
2022/10/14 00:59:09;;;;;;;35.10;17.15;;;;;;;;;;5077670;28;20066;-43
2022/10/14 01:01:34;;;;;;;29.02;16.42;;;;;;;;;;5095627;28;20063;-44
2022/10/14 01:03:59;;;;;;;31.58;17.02;;;;;;;;;;5095638;28;20024;-43
2022/10/14 01:06:31;;;;;;;33.42;17.95;;;;;;;;;;5095416;28;20073;-43
2022/10/14 01:08:59;;;;;;;27.60;17.08;;;;;;;;;;5095584;28;20110;-43
2022/10/14 01:11:34;;;;;;;33.30;17.37;;;;;;;;;;5095631;28;20475;-41
2022/10/14 01:14:04;;;;;;;35.05;17.15;;;;;;;;;;5095344;28;20060;-44
2022/10/14 01:16:38;;;;;;;31.00;17.10;;;;;;;;;;5095275;28;20020;-42
2022/10/14 01:19:22;;;;;;;26.67;15.30;;;;;;;;;;5095304;28;20348;-43
2022/10/14 01:21:51;;;;;;;36.97;18.45;;;;;;;;;;5095686;28;20034;-44
2022/10/14 01:24:29;;;;;;;42.78;18.58;;;;;;;;;;5095171;28;20379;-44
2022/10/14 01:27:12;;;;;;;36.30;18.17;;;;;;;;;;5095304;28;20054;-43
2022/10/14 01:29:56;;;;;;;38.25;18.60;;;;;;;;;;5095030;28;20028;-44
2022/10/14 01:32:26;;;;;;;34.65;19.35;;;;;;;;;;5095077;28;20029;-42
2022/10/14 01:35:00;;;;;;;33.88;18.05;;;;;;;;;;5094649;28;20028;-43
2022/10/14 01:37:27;;;;;;;33.78;18.73;;;;;;;;;;5095083;28;20016;-42
2022/10/14 01:39:56;;;;;;;36.28;18.80;;;;;;;;;;5094640;28;20032;-42
2022/10/14 01:42:26;;;;;;;35.70;18.80;;;;;;;;;;5094795;28;20020;-41
2022/10/14 01:44:55;;;;;;;31.83;18.02;;;;;;;;;;5094959;28;20257;-44
2022/10/14 01:47:22;;;;;;;34.10;18.20;;;;;;;;;;5095047;28;20483;-41
2022/10/14 01:50:08;;;;;;;33.63;18.23;;;;;;;;;;5094789;28;20482;-43
2022/10/14 01:52:36;;;;;;;42.17;18.65;;;;;;;;;;5094439;28;20031;-43
2022/10/14 01:55:04;;;;;;;36.65;19.35;;;;;;;;;;5094621;28;20056;-43
2022/10/14 01:57:32;;;;;;;39.20;19.60;;;;;;;;;;5094775;28;20020;-43
2022/10/14 01:59:58;;;;;;;37.85;18.70;;;;;;;;;;5094405;28;20383;-43
2022/10/14 02:02:24;;;;;;;38.00;20.80;;;;;;;;;;5094363;28;20028;-44
2022/10/14 02:04:49;;;;;;;36.28;18.15;;;;;;;;;;5094369;28;20039;-44
2022/10/14 02:07:21;;;;;;;30.67;16.73;;;;;;;;;;5094267;28;20432;-43
2022/10/14 02:09:54;;;;;;;31.90;16.73;;;;;;;;;;5094671;28;20035;-43
2022/10/14 02:12:19;;;;;;;31.33;17.08;;;;;;;;;;5094126;28;20471;-42
2022/10/14 02:15:03;;;;;;;30.35;19.38;;;;;;;;;;5094351;28;20031;-42
2022/10/14 02:17:54;;;;;;;31.67;16.48;;;;;;;;;;5093856;28;20051;-42
2022/10/14 02:20:23;;;;;;;29.02;16.98;;;;;;;;;;5089136;28;20090;-44
2022/10/14 02:22:53;;;;;;;39.53;20.02;;;;;;;;;;5094157;28;20517;-44
2022/10/14 02:25:23;;;;;;;33.67;18.58;;;;;;;;;;5094210;28;20031;-43
2022/10/14 02:27:49;;;;;;;37.58;19.90;;;;;;;;;;5093809;28;20027;-44
2022/10/14 02:30:15;;;;;;;37.83;19.50;;;;;;;;;;5093811;28;20395;-43
2022/10/14 02:32:41;;;;;;;35.22;20.55;;;;;;;;;;5094012;28;20116;-43
2022/10/14 02:35:08;;;;;;;39.22;21.65;;;;;;;;;;5094072;28;20157;-44
2022/10/14 02:37:34;;;;;;;40.45;22.15;;;;;;;;;;5093832;28;20040;-42
2022/10/14 02:40:10;;;;;;;38.47;21.13;;;;;;;;;;5093594;28;20032;-40
2022/10/14 02:42:35;;;;;;;34.72;19.25;;;;;;;;;;5089119;28;20112;-44
2022/10/14 02:45:01;;;;;;;34.28;19.92;;;;;;;;;;5073440;28;20091;-43
2022/10/14 02:47:26;;;;;;;38.85;20.77;;;;;;;;;;5072301;28;20048;-43
2022/10/14 02:49:51;;;;;;;42.90;22.35;;;;;;;;;;5071837;28;20027;-41
2022/10/14 02:52:17;;;;;;;43.15;22.17;;;;;;;;;;5073311;28;20023;-41
2022/10/14 02:54:43;;;;;;;40.63;22.00;;;;;;;;;;5073058;28;20527;-42
2022/10/14 02:57:09;;;;;;;39.42;23.23;;;;;;;;;;5072960;28;20425;-43
2022/10/14 02:59:34;;;;;;;41.55;22.85;;;;;;;;;;5073337;28;20025;-43
2022/10/14 03:01:59;;;;;;;46.60;24.02;;;;;;;;;;5073413;28;20017;-44
2022/10/14 03:04:25;;;;;;;43.03;23.83;;;;;;;;;;5073266;28;20031;-43
2022/10/14 03:06:50;;;;;;;46.80;24.30;;;;;;;;;;5072982;28;20025;-44
2022/10/14 03:09:16;;;;;;;43.67;23.58;;;;;;;;;;5072997;28;20017;-43
2022/10/14 03:11:41;;;;;;;43.75;23.00;;;;;;;;;;5073238;28;20081;-42
2022/10/14 03:14:06;;;;;;;39.38;21.67;;;;;;;;;;5072716;28;20092;-44
2022/10/14 03:16:32;;;;;;;43.90;24.42;;;;;;;;;;5072974;28;20017;-42
2022/10/14 03:18:57;;;;;;;45.78;23.73;;;;;;;;;;5072932;28;20361;-41
2022/10/14 03:21:22;;;;;;;46.47;23.20;;;;;;;;;;5072897;28;20032;-43
2022/10/14 03:23:48;;;;;;;44.65;23.70;;;;;;;;;;5072942;28;20024;-43
2022/10/14 03:26:13;;;;;;;42.20;23.40;;;;;;;;;;5072658;28;20107;-43
2022/10/14 03:28:38;;;;;;;41.22;22.83;;;;;;;;;;5072469;28;20021;-44
2022/10/14 03:31:04;;;;;;;50.22;25.73;;;;;;;;;;5072877;28;20055;-43
2022/10/14 03:33:29;;;;;;;48.60;25.48;;;;;;;;;;5072564;28;20021;-44
2022/10/14 03:35:54;;;;;;;52.05;26.40;;;;;;;;;;5072686;28;20013;-43
2022/10/14 03:38:20;;;;;;;48.15;24.77;;;;;;;;;;5072609;28;20070;-42
2022/10/14 03:40:45;;;;;;;43.60;23.95;;;;;;;;;;5072426;28;20025;-40
2022/10/14 03:43:10;;;;;;;42.60;24.45;;;;;;;;;;5072207;28;20020;-43
2022/10/14 03:45:36;;;;;;;53.13;27.40;;;;;;;;;;5072630;28;20021;-43
2022/10/14 03:48:01;;;;;;;48.65;26.00;;;;;;;;;;5072520;28;20379;-42
2022/10/14 03:50:27;;;;;;;52.35;26.75;;;;;;;;;;5072698;28;20016;-44
2022/10/14 03:52:52;;;;;;;51.45;26.35;;;;;;;;;;5054444;28;20024;-44
2022/10/14 03:55:18;;;;;;;54.22;25.95;;;;;;;;;;5072256;28;20484;-43
2022/10/14 03:57:43;;;;;;;51.13;26.20;;;;;;;;;;5072313;28;20031;-44
2022/10/14 04:00:09;;;;;;;48.50;25.05;;;;;;;;;;5076003;28;20064;-42
2022/10/14 04:02:34;;;;;;;44.20;24.83;;;;;;;;;;5076688;28;20068;-44
2022/10/14 04:04:59;;;;;;;48.60;26.42;;;;;;;;;;5076777;28;20020;-43
2022/10/14 04:07:25;;;;;;;50.65;27.40;;;;;;;;;;5076257;28;20020;-44
2022/10/14 04:09:50;;;;;;;48.03;26.35;;;;;;;;;;5076178;28;20460;-42
2022/10/14 04:12:16;;;;;;;51.67;28.13;;;;;;;;;;5076360;28;20028;-42
2022/10/14 04:14:41;;;;;;;51.15;27.75;;;;;;;;;;5075131;28;20032;-44
2022/10/14 04:17:06;;;;;;;50.50;26.70;;;;;;;;;;5075796;28;20019;-43
2022/10/14 04:19:31;;;;;;;57.30;28.30;;;;;;;;;;5076368;28;20078;-44
2022/10/14 04:21:57;;;;;;;53.13;26.52;;;;;;;;;;5076060;28;20025;-43
2022/10/14 04:24:22;;;;;;;56.88;28.48;;;;;;;;;;5075921;28;20032;-43
2022/10/14 04:26:51;;;;;;;52.17;27.63;;;;;;;;;;5075999;28;20020;-43
2022/10/14 04:29:17;;;;;;;51.70;28.25;;;;;;;;;;5075676;28;20020;-41
2022/10/14 04:31:42;;;;;;;59.05;29.65;;;;;;;;;;5076085;28;20155;-42
2022/10/14 04:34:08;;;;;;;64.45;30.73;;;;;;;;;;5075784;28;20044;-42
2022/10/14 04:36:33;;;;;;;51.88;30.02;;;;;;;;;;5075865;28;20017;-43
2022/10/14 04:38:59;;;;;;;54.72;29.92;;;;;;;;;;5075642;28;20483;-43
2022/10/14 04:41:24;;;;;;;60.08;29.95;;;;;;;;;;5075021;28;20039;-46
2022/10/14 04:43:49;;;;;;;60.78;29.95;;;;;;;;;;5056407;28;20017;-43
2022/10/14 04:46:14;;;;;;;62.97;30.38;;;;;;;;;;5075802;28;20024;-43
2022/10/14 04:48:40;;;;;;;55.92;29.10;;;;;;;;;;5075507;28;20016;-42
2022/10/14 04:51:05;;;;;;;51.60;29.42;;;;;;;;;;5075534;28;20020;-42
2022/10/14 04:53:30;;;;;;;50.92;28.63;;;;;;;;;;5075798;28;20075;-43
2022/10/14 04:55:56;;;;;;;51.90;28.27;;;;;;;;;;5075237;28;20056;-41
2022/10/14 04:58:21;;;;;;;56.00;30.00;;;;;;;;;;5075031;28;20052;-43
2022/10/14 05:00:46;;;;;;;59.80;31.47;;;;;;;;;;5075205;28;20083;-43
2022/10/14 05:03:12;;;;;;;52.55;29.73;;;;;;;;;;5075619;28;20242;-43
2022/10/14 05:05:37;;;;;;;55.88;28.77;;;;;;;;;;5075314;28;20028;-45
2022/10/14 05:08:02;;;;;;;58.20;29.25;;;;;;;;;;5075210;28;20036;-42
2022/10/14 05:10:28;;;;;;;53.50;29.70;;;;;;;;;;5074281;28;20017;-42
2022/10/14 05:12:53;;;;;;;55.05;30.98;;;;;;;;;;5075052;28;20159;-38
2022/10/14 05:15:18;;;;;;;54.25;28.05;;;;;;;;;;5074848;28;20092;-43
2022/10/14 05:17:44;;;;;;;61.15;29.95;;;;;;;;;;5075156;28;20027;-44
2022/10/14 05:20:10;;;;;;;55.33;27.50;;;;;;;;;;5075047;28;20039;-42
2022/10/14 05:22:35;;;;;;;54.17;30.80;;;;;;;;;;5074997;28;20064;-43
2022/10/14 05:25:01;;;;;;;58.88;29.98;;;;;;;;;;5074897;28;20021;-43
2022/10/14 05:27:26;;;;;;;63.33;30.42;;;;;;;;;;5074794;28;20021;-40
2022/10/14 05:29:51;;;;;;;52.10;28.83;;;;;;;;;;5074403;28;20115;-43
2022/10/14 05:32:17;;;;;;;62.88;29.80;;;;;;;;;;5074733;28;20020;-43
2022/10/14 05:34:42;;;;;;;54.80;29.98;;;;;;;;;;5077488;28;20026;-42
2022/10/14 05:37:07;;;;;;;53.63;26.08;;;;;;;;;;5085955;28;20024;-43
2022/10/14 05:39:33;;;;;;;52.42;28.58;;;;;;;;;;5075877;28;20028;-43
2022/10/14 05:41:58;;;;;;;51.05;27.02;;;;;;;;;;5074534;28;20371;-43
2022/10/14 05:44:23;;;;;;;54.70;28.38;;;;;;;;;;5087752;28;20024;-41
2022/10/14 05:46:48;;;;;;;60.75;30.65;;;;;;;;;;5094670;28;20020;-42
2022/10/14 05:49:14;;;;;;;52.88;27.45;;;;;;;;;;5095237;28;20077;-43
2022/10/14 05:51:39;;;;;;;60.90;29.67;;;;;;;;;;5094531;28;20149;-40
2022/10/14 05:54:05;;;;;;;50.55;26.80;;;;;;;;;;5094551;28;20098;-44
2022/10/14 05:56:30;;;;;;;56.55;29.77;;;;;;;;;;5085746;28;20068;-43
2022/10/14 05:58:55;;;;;;;68.05;31.63;;;;;;;;;;5077492;28;20020;-43
2022/10/14 06:01:21;;;;;;;54.67;30.50;;;;;;;;;;5083634;28;20046;-42
2022/10/14 06:03:52;;;;;;;59.53;29.30;;;;;;;;;;5076387;28;20016;-40
2022/10/14 06:06:18;;;;;;;51.28;26.88;;;;;;;;;;5079793;28;20471;-41
2022/10/14 06:08:43;;;;;;;56.15;28.88;;;;;;;;;;5083215;28;20073;-39
2022/10/14 06:11:09;;;;;;;52.70;26.45;;;;;;;;;;5078496;28;20035;-40
2022/10/14 06:13:35;;;;;;;51.97;28.58;;;;;;;;;;5080539;28;20091;-41
2022/10/14 06:16:04;;;;;;;48.72;28.00;;;;;;;;;;5072549;28;20031;-45
2022/10/14 06:18:29;;;;;;;48.88;26.20;;;;;;;;;;5081475;28;21852;-40
2022/10/14 06:20:55;;;;;;;48.22;28.60;;;;;;;;;;5079119;28;20068;-43
2022/10/14 06:23:20;;;;;;;49.28;27.15;;;;;;;;;;5075383;28;20024;-44
2022/10/14 06:25:45;;;;;;;44.95;25.30;;;;;;;;;;5073036;28;20028;-41
2022/10/14 06:28:11;;;;;;;51.50;26.00;;;;;;;;;;5076884;28;20036;-42
2022/10/14 06:30:36;;;;;;;42.63;26.10;;;;;;;;;;5076226;28;20031;-43
2022/10/14 06:33:01;;;;;;;40.75;25.05;;;;;;;;;;5082047;28;20472;-40
2022/10/14 06:35:27;;;;;;;43.00;23.92;;;;;;;;;;5058165;28;20020;-42
2022/10/14 06:37:52;;;;;;;41.42;24.15;;;;;;;;;;5052715;28;20021;-39
2022/10/14 06:40:17;;;;;;;46.33;26.05;;;;;;;;;;5072286;28;20040;-43
2022/10/14 06:42:43;;;;;;;39.25;23.38;;;;;;;;;;5081013;28;20027;-44
2022/10/14 06:45:08;;;;;;;36.53;22.35;;;;;;;;;;5078310;28;20019;-44
2022/10/14 06:47:34;;;;;;;38.28;21.88;;;;;;;;;;5080553;28;20024;-45
2022/10/14 06:49:59;;;;;;;35.92;21.48;;;;;;;;;;5076709;28;20024;-43
2022/10/14 06:52:24;;;;;;;44.75;24.17;;;;;;;;;;5072571;28;20051;-40
2022/10/14 06:54:49;;;;;;;38.33;23.10;;;;;;;;;;5073236;28;20076;-44
2022/10/14 06:57:15;;;;;;;42.13;23.93;;;;;;;;;;5053107;28;20044;-41
2022/10/14 06:59:40;;;;;;;43.17;25.02;;;;;;;;;;5069395;28;20261;-37
2022/10/14 07:02:05;;;;;;;39.08;22.48;;;;;;;;;;5078728;28;20020;-41
2022/10/14 07:04:31;;;;;;;36.75;22.30;;;;;;;;;;5082132;28;20024;-45
2022/10/14 07:06:57;;;;;;;36.03;22.35;;;;;;;;;;5070123;28;20031;-47
2022/10/14 07:09:22;;;;;;;43.35;22.38;;;;;;;;;;5071308;28;20036;-42
2022/10/14 07:11:48;;;;;;;39.58;23.58;;;;;;;;;;5072555;28;20020;-41
2022/10/14 07:14:13;;;;;;;42.83;24.63;;;;;;;;;;5070233;28;20069;-42
2022/10/14 07:16:41;;;;;;;37.85;21.70;;;;;;;;;;5076363;28;20034;-39
2022/10/14 07:19:07;;;;;;;36.92;22.85;;;;;;;;;;5084480;28;20095;-42
2022/10/14 07:21:32;;;;;;;38.65;21.45;;;;;;;;;;5083291;28;20143;-42
2022/10/14 07:23:57;;;;;;;35.30;21.15;;;;;;;;;;5081628;28;20016;-42
2022/10/14 07:26:23;;;;;;;43.03;22.63;;;;;;;;;;5085865;28;20165;-42
2022/10/14 07:28:48;;;;;;;40.03;21.73;;;;;;;;;;5083681;28;20486;-42
2022/10/14 07:31:13;;;;;;;37.50;21.55;;;;;;;;;;5078807;28;20029;-43
2022/10/14 07:33:39;;;;;;;36.95;22.00;;;;;;;;;;5069349;28;20028;-42
2022/10/14 07:36:06;;;;;;;49.85;22.42;;;;;;;;;;5069365;28;20031;-39
2022/10/14 07:38:32;;;;;;;37.78;21.00;;;;;;;;;;5077458;28;20130;-43
2022/10/14 07:40:59;;;;;;;30.90;19.92;;;;;;;;;;5076323;28;20130;-40
2022/10/14 07:43:24;;;;;;;35.83;20.50;;;;;;;;;;5073928;28;20365;-45
2022/10/14 07:45:50;;;;;;;31.02;19.23;;;;;;;;;;5075065;28;20074;-39
2022/10/14 07:48:15;;;;;;;40.50;19.65;;;;;;;;;;5076297;28;20486;-37
2022/10/14 07:50:40;;;;;;;30.45;16.90;;;;;;;;;;5078103;28;20042;-35
2022/10/14 07:53:06;;;;;;;30.95;20.52;;;;;;;;;;5077800;28;20020;-39
2022/10/14 07:55:31;;;;;;;30.95;20.02;;;;;;;;;;5074788;28;20099;-42
2022/10/14 07:57:56;;;;;;;34.47;19.17;;;;;;;;;;5078752;28;20021;-43
2022/10/14 08:00:22;;;;;;;33.50;20.30;;;;;;;;;;5072061;28;20843;-44
2022/10/14 08:02:47;;;;;;;53.45;19.00;;;;;;;;;;5069629;28;20020;-44
2022/10/14 08:05:12;;;;;;;36.67;18.63;;;;;;;;;;5080116;28;20021;-44
2022/10/14 08:07:38;;;;;;;30.40;17.58;;;;;;;;;;5080005;28;20020;-44
2022/10/14 08:10:03;;;;;;;28.90;17.88;;;;;;;;;;5075225;28;20031;-43
2022/10/14 08:12:29;;;;;;;28.10;19.38;;;;;;;;;;5070617;28;20030;-39
2022/10/14 08:14:55;;;;;;;24.95;17.67;;;;;;;;;;5074878;28;20044;-45
2022/10/14 08:17:20;;;;;;;36.13;19.45;;;;;;;;;;5074325;28;20020;-38
2022/10/14 08:19:48;;;;;;;29.80;19.07;;;;;;;;;;5079694;28;20546;-43
2022/10/14 08:22:13;;;;;;;29.88;19.48;;;;;;;;;;5079169;28;20352;-43
2022/10/14 08:24:38;;;;;;;28.90;18.48;;;;;;;;;;5082064;28;20112;-42
2022/10/14 08:27:05;;;;;;;27.05;17.25;;;;;;;;;;5071017;28;20024;-44
2022/10/14 08:29:31;;;;;;;28.00;16.40;;;;;;;;;;5072842;28;20451;-46
2022/10/14 08:31:56;;;;;;;32.30;19.25;;;;;;;;;;5068593;28;20135;-44
2022/10/14 08:34:23;;;;;;;28.83;18.13;;;;;;;;;;5081596;28;20028;-47
2022/10/14 08:36:49;;;;;;;19.92;13.57;;;;;;;;;;5080185;28;20032;-43
2022/10/14 08:39:20;;;;;;;31.10;16.10;;;;;;;;;;5069379;28;20027;-39
2022/10/14 08:41:55;;;;;;;26.02;15.80;;;;;;;;;;5076428;28;20116;-42
2022/10/14 08:44:25;;;;;;;23.95;15.73;;;;;;;;;;5076717;28;20029;-43
2022/10/14 08:46:58;;;;;;;26.48;16.98;;;;;;;;;;5083675;28;20078;-42
2022/10/14 08:49:26;;;;;;;28.67;16.85;;;;;;;;;;5080485;28;20028;-45
2022/10/14 08:51:57;;;;;;;26.73;17.10;;;;;;;;;;5087840;28;20110;-43
2022/10/14 08:54:33;;;;;;;24.85;16.40;;;;;;;;;;5076873;28;20032;-44
2022/10/14 08:56:58;;;;;;;22.63;14.70;;;;;;;;;;5093480;28;20380;-41
2022/10/14 08:59:24;;;;;;;23.50;13.25;;;;;;;;;;5068747;28;20023;-45
2022/10/14 09:02:00;;;;;;;22.73;15.38;;;;;;;;;;5082604;28;20039;-40
2022/10/14 09:04:26;;;;;;;24.90;13.68;;;;;;;;;;5084025;28;20626;-42
2022/10/14 09:06:52;;;;;;;25.20;15.20;;;;;;;;;;5087480;28;20023;-38
2022/10/14 09:09:38;;;;;;;22.92;14.40;;;;;;;;;;5075522;28;20040;-42
2022/10/14 09:12:05;;;;;;;23.58;13.75;;;;;;;;;;5074921;28;20035;-43
2022/10/14 09:14:35;;;;;;;21.52;11.52;;;;;;;;;;5084314;28;20034;-44
2022/10/14 09:17:05;;;;;;;25.17;14.52;;;;;;;;;;5092623;28;20020;-44
2022/10/14 09:19:31;;;;;;;28.80;17.42;;;;;;;;;;5087741;28;20050;-44
2022/10/14 09:21:57;;;;;;;29.10;17.95;;;;;;;;;;5076199;28;20091;-42
2022/10/14 09:24:27;;;;;;;27.38;15.68;;;;;;;;;;5072323;28;20028;-43
2022/10/14 09:27:12;;;;;;;31.55;20.33;;;;;;;;;;5084043;28;20031;-48
2022/10/14 09:29:40;;;;;;;27.77;15.00;;;;;;;;;;5065807;28;20119;-44
2022/10/14 09:32:08;;;;;;;27.88;12.18;;;;;;;;;;5083209;28;20072;-43
2022/10/14 09:34:43;;;;;;;30.63;14.50;;;;;;;;;;5077135;28;20028;-43
2022/10/14 09:37:09;;;;;;;24.15;14.95;;;;;;;;;;5076504;28;20052;-43
2022/10/14 09:39:36;;;;;;;24.40;13.73;;;;;;;;;;5072002;28;20055;-43
2022/10/14 09:42:01;;;;;;;26.60;12.77;;;;;;;;;;5073956;28;20016;-43
2022/10/14 09:44:27;;;;;;;24.13;14.05;;;;;;;;;;5084070;28;20085;-44
2022/10/14 09:46:56;;;;;;;24.55;13.77;;;;;;;;;;5072770;28;20375;-40
2022/10/14 09:49:30;;;;;;;22.60;14.25;;;;;;;;;;5074031;28;20024;-43
2022/10/14 09:51:56;;;;;;;23.73;14.10;;;;;;;;;;5075974;28;20099;-43
2022/10/14 09:54:23;;;;;;;24.80;12.93;;;;;;;;;;5081369;28;20535;-40
2022/10/14 09:56:48;;;;;;;22.25;11.82;;;;;;;;;;5072128;28;20044;-42
2022/10/14 09:59:18;;;;;;;27.27;11.70;;;;;;;;;;5072507;28;20017;-46
2022/10/14 10:02:16;;;;;;;23.55;11.82;;;;;;;;;;5073961;28;20032;-43
2022/10/14 10:04:45;;;;;;;25.15;10.68;;;;;;;;;;5048300;28;20407;-44
2022/10/14 10:07:26;;;;;;;29.45;14.00;;;;;;;;;;5072631;28;20024;-43
2022/10/14 10:09:56;;;;;;;25.80;14.35;;;;;;;;;;5071064;28;20094;-44
2022/10/14 10:12:23;;;;;;;38.33;18.73;;;;;;;;;;5074813;28;20023;-42
2022/10/14 10:14:59;;;;;;;26.67;13.75;;;;;;;;;;5080838;28;20109;-42
2022/10/14 10:17:26;;;;;;;28.23;14.00;;;;;;;;;;5072014;28;20025;-40
2022/10/14 10:20:05;;;;;;;32.28;13.82;;;;;;;;;;5071680;28;20387;-39
2022/10/14 10:22:35;;;;;;;25.38;11.73;;;;;;;;;;5071988;28;20016;-39
2022/10/14 10:25:04;;;;;;;42.22;19.13;;;;;;;;;;5080958;28;20031;-43
2022/10/14 10:27:34;;;;;;;48.90;20.90;;;;;;;;;;5073287;28;20028;-42
2022/10/14 10:30:13;;;;;;;16.15;9.65;;;;;;;;;;5072119;28;20020;-41
2022/10/14 10:32:59;;;;;;;17.80;10.32;;;;;;;;;;5071899;28;20396;-42
2022/10/14 10:35:28;;;;;;;19.58;9.90;;;;;;;;;;5063355;28;20028;-47
2022/10/14 10:38:00;;;;;;;20.40;10.57;;;;;;;;;;5079519;28;20356;-42
2022/10/14 10:40:31;;;;;;;29.42;11.88;;;;;;;;;;5092287;28;20040;-42
2022/10/14 10:43:08;;;;;;;19.60;9.82;;;;;;;;;;5087964;28;20013;-41
2022/10/14 10:45:35;;;;;;;16.10;9.55;;;;;;;;;;5070395;28;20052;-45
2022/10/14 10:48:19;;;;;;;17.02;9.55;;;;;;;;;;5074878;28;20067;-45
2022/10/14 10:51:06;;;;;;;22.85;12.05;;;;;;;;;;5076355;28;20052;-41
2022/10/14 10:53:50;;;;;;;23.13;11.15;;;;;;;;;;5064083;28;20178;-42
2022/10/14 10:56:22;;;;;;;16.52;10.02;;;;;;;;;;5091030;28;20473;-40
2022/10/14 10:59:08;;;;;;;20.70;10.95;;;;;;;;;;5074065;28;20032;-38
2022/10/14 11:01:41;;;;;;;22.83;10.98;;;;;;;;;;5070726;28;20071;-41
2022/10/14 11:04:20;;;;;;;23.88;11.10;;;;;;;;;;5070789;28;20048;-41
2022/10/14 11:12:45;;;;;;;24.65;12.27;;;;;;;;;;5070893;28;20027;-45
2022/10/14 11:15:46;;;;;;;17.58;11.45;;;;;;;;;;5073309;28;20024;-42
2022/10/14 11:18:19;;;;;;;20.58;10.88;;;;;;;;;;4960508;28;20031;-40
2022/10/14 11:20:56;;;;;;;22.15;12.20;;;;;;;;;;5051872;28;20033;-45
2022/10/14 11:23:24;;;;;;;25.05;12.43;;;;;;;;;;5081144;28;20179;-43
2022/10/14 11:25:50;;;;;;;21.92;11.85;;;;;;;;;;5082558;28;20035;-43
2022/10/14 11:28:15;;;;;;;26.02;14.10;;;;;;;;;;5074640;28;20360;-46
2022/10/14 11:30:48;;;;;;;33.28;14.05;;;;;;;;;;5073148;28;20020;-41
2022/10/14 11:33:28;;;;;;;18.52;11.95;;;;;;;;;;5081334;28;20039;-44
2022/10/14 11:36:03;;;;;;;22.08;12.02;;;;;;;;;;5088089;28;20053;-42
2022/10/14 11:38:28;;;;;;;18.20;12.43;;;;;;;;;;5074894;28;20460;-42
2022/10/14 11:41:03;;;;;;;24.87;15.70;;;;;;;;;;5071195;28;20044;-40
2022/10/14 11:43:31;;;;;;;22.83;12.07;;;;;;;;;;5087083;28;20268;-40
2022/10/14 11:46:03;;;;;;;19.55;11.60;;;;;;;;;;5083573;28;20012;-40
2022/10/14 11:48:34;;;;;;;23.50;13.30;;;;;;;;;;5070491;28;20024;-44
2022/10/14 11:51:15;;;;;;;19.05;11.57;;;;;;;;;;5075803;28;20020;-42
2022/10/14 11:53:51;;;;;;;31.38;13.05;;;;;;;;;;5074618;28;20073;-45
2022/10/14 11:56:22;;;;;;;21.63;11.13;;;;;;;;;;5074859;28;20048;-45
2022/10/14 11:58:50;;;;;;;18.00;11.13;;;;;;;;;;5089767;28;20364;-40
2022/10/14 12:01:17;;;;;;;19.70;11.85;;;;;;;;;;5075748;28;20035;-43
2022/10/14 12:04:02;;;;;;;16.70;10.77;;;;;;;;;;5070046;28;20443;-45
2022/10/14 12:06:42;;;;;;;19.83;11.02;;;;;;;;;;5070053;28;20032;-44
2022/10/14 12:09:07;;;;;;;21.77;10.98;;;;;;;;;;5073830;28;20025;-42
2022/10/14 12:11:36;;;;;;;17.15;11.25;;;;;;;;;;5071053;28;20374;-42
2022/10/14 12:14:04;;;;;;;20.85;11.13;;;;;;;;;;5075962;28;20021;-43
2022/10/14 12:16:30;;;;;;;20.13;11.80;;;;;;;;;;5082326;28;20463;-43
2022/10/14 12:18:55;;;;;;;20.15;11.85;;;;;;;;;;5075640;28;20015;-46
2022/10/14 12:21:38;;;;;;;23.65;12.45;;;;;;;;;;5082393;28;20391;-45
2022/10/14 12:24:03;;;;;;;25.15;11.63;;;;;;;;;;5078505;28;20115;-43
2022/10/14 12:26:31;;;;;;;19.35;11.85;;;;;;;;;;5079613;28;20107;-43
2022/10/14 12:28:57;;;;;;;22.33;13.57;;;;;;;;;;5085446;28;20036;-43
2022/10/14 12:31:34;;;;;;;19.42;11.15;;;;;;;;;;5074238;28;20032;-43
2022/10/14 12:34:14;;;;;;;16.83;10.30;;;;;;;;;;5074108;28;20025;-45
2022/10/14 12:36:44;;;;;;;25.35;10.25;;;;;;;;;;5087820;28;20078;-42
2022/10/14 12:39:15;;;;;;;18.27;11.57;;;;;;;;;;5073865;28;20066;-46
2022/10/14 12:41:46;;;;;;;20.65;10.75;;;;;;;;;;5073021;28;20040;-43
2022/10/14 12:44:13;;;;;;;18.48;11.98;;;;;;;;;;5076769;28;20407;-43
2022/10/14 12:46:45;;;;;;;21.45;11.88;;;;;;;;;;5074194;28;20031;-43
2022/10/14 12:49:17;;;;;;;20.73;10.23;;;;;;;;;;5082839;28;20028;-42
2022/10/14 12:52:00;;;;;;;16.60;10.40;;;;;;;;;;5079350;28;20036;-43
2022/10/14 12:54:25;;;;;;;19.92;9.73;;;;;;;;;;5087941;28;20378;-44
2022/10/14 12:56:54;;;;;;;16.65;9.18;;;;;;;;;;5074780;28;20047;-42
2022/10/14 12:59:31;;;;;;;17.43;8.30;;;;;;;;;;5077161;28;20029;-42
2022/10/14 13:02:03;;;;;;;25.15;9.70;;;;;;;;;;5077323;28;20336;-42
2022/10/14 13:04:29;;;;;;;16.77;9.60;;;;;;;;;;5074467;28;20020;-43
2022/10/14 13:07:14;;;;;;;19.52;8.95;;;;;;;;;;5077435;28;20112;-43
2022/10/14 13:09:40;;;;;;;15.30;9.27;;;;;;;;;;5022983;28;20028;-43
2022/10/14 13:12:20;;;;;;;13.63;7.55;;;;;;;;;;5078925;28;20414;-45
2022/10/14 13:14:51;;;;;;;16.48;8.63;;;;;;;;;;5077555;28;20024;-44
2022/10/14 13:17:41;;;;;;;15.60;8.25;;;;;;;;;;5078520;28;20092;-42
2022/10/14 13:20:26;;;;;;;19.85;8.85;;;;;;;;;;5080930;28;20040;-46
2022/10/14 13:22:52;;;;;;;17.42;7.50;;;;;;;;;;5054153;28;20111;-43
2022/10/14 13:25:18;;;;;;;21.73;8.40;;;;;;;;;;5075016;28;20553;-42
2022/10/14 13:28:02;;;;;;;18.40;8.63;;;;;;;;;;5083344;28;20012;-42
2022/10/14 13:30:28;;;;;;;28.00;8.48;;;;;;;;;;5080720;28;20035;-39
2022/10/14 13:33:03;;;;;;;15.03;7.73;;;;;;;;;;5076943;28;20017;-42
2022/10/14 13:35:31;;;;;;;22.50;8.25;;;;;;;;;;5075166;28;20269;-39
2022/10/14 13:38:01;;;;;;;20.88;8.20;;;;;;;;;;5069498;28;20174;-41
2022/10/14 13:40:35;;;;;;;21.67;8.70;;;;;;;;;;5071556;28;20032;-42
2022/10/14 13:43:05;;;;;;;14.65;7.15;;;;;;;;;;5080207;28;20028;-43
2022/10/14 13:45:53;;;;;;;17.00;7.28;;;;;;;;;;5091172;28;20481;-36
2022/10/14 13:48:23;;;;;;;13.25;8.30;;;;;;;;;;5078366;28;20028;-40
2022/10/14 13:50:49;;;;;;;16.92;7.88;;;;;;;;;;5092728;28;20012;-41
2022/10/14 13:53:20;;;;;;;18.13;7.80;;;;;;;;;;5091754;28;20480;-44
2022/10/14 13:55:46;;;;;;;25.85;8.57;;;;;;;;;;5090994;28;20093;-40
2022/10/14 13:58:14;;;;;;;15.50;7.25;;;;;;;;;;5091771;28;20035;-42
2022/10/14 14:01:01;;;;;;;13.98;7.50;;;;;;;;;;5091015;28;20067;-43
2022/10/14 14:03:36;;;;;;;16.92;8.77;;;;;;;;;;5091250;28;20020;-44
2022/10/14 14:06:07;;;;;;;16.27;8.35;;;;;;;;;;5091278;28;20675;-42
2022/10/14 14:08:33;;;;;;;15.82;8.93;;;;;;;;;;5091498;28;20510;-43
2022/10/14 14:11:00;;;;;;;28.40;9.40;;;;;;;;;;5092318;28;20077;-44
2022/10/14 14:13:26;;;;;;;18.63;9.23;;;;;;;;;;5093129;28;20028;-44
2022/10/14 14:15:53;;;;;;;25.75;8.57;;;;;;;;;;5093015;28;20356;-42
2022/10/14 14:18:25;;;;;;;24.30;8.30;;;;;;;;;;5093001;28;20028;-44
2022/10/14 14:20:57;;;;;;;17.35;8.23;;;;;;;;;;5092669;28;20032;-39
2022/10/14 14:23:23;;;;;;;18.90;8.82;;;;;;;;;;5092944;28;20392;-41
2022/10/14 14:25:48;;;;;;;18.50;8.85;;;;;;;;;;5093084;28;20027;-41
2022/10/14 14:28:16;;;;;;;18.08;8.57;;;;;;;;;;5092758;28;20459;-38
2022/10/14 14:30:47;;;;;;;15.77;8.23;;;;;;;;;;5093072;28;20048;-41
2022/10/14 14:33:15;;;;;;;12.82;8.07;;;;;;;;;;5092973;28;20028;-45